sensor_id;sensor_type;location;lat;lon;timestamp;P1;durP1;ratioP1;P2;durP2;ratioP2
27728;SDS011;15126;42.186;24.340;2024-01-30T00:01:41;12.38;;;5.25;;
27728;SDS011;15126;42.186;24.340;2024-01-30T00:04:06;12.02;;;4.97;;
27728;SDS011;15126;42.186;24.340;2024-01-30T00:06:32;12.52;;;5.05;;
27728;SDS011;15126;42.186;24.340;2024-01-30T00:08:57;11.73;;;5.57;;
27728;SDS011;15126;42.186;24.340;2024-01-30T00:11:23;11.43;;;5.45;;
27728;SDS011;15126;42.186;24.340;2024-01-30T00:13:50;10.27;;;4.80;;
27728;SDS011;15126;42.186;24.340;2024-01-30T00:16:23;10.00;;;4.85;;
27728;SDS011;15126;42.186;24.340;2024-01-30T00:18:52;15.25;;;6.30;;
27728;SDS011;15126;42.186;24.340;2024-01-30T00:21:19;14.02;;;5.57;;
27728;SDS011;15126;42.186;24.340;2024-01-30T00:23:45;13.38;;;5.30;;
27728;SDS011;15126;42.186;24.340;2024-01-30T00:26:14;9.45;;;4.50;;
27728;SDS011;15126;42.186;24.340;2024-01-30T00:28:42;11.50;;;5.38;;
27728;SDS011;15126;42.186;24.340;2024-01-30T00:31:08;13.25;;;5.72;;
27728;SDS011;15126;42.186;24.340;2024-01-30T00:33:40;14.20;;;5.88;;
27728;SDS011;15126;42.186;24.340;2024-01-30T00:36:06;10.00;;;5.05;;
27728;SDS011;15126;42.186;24.340;2024-01-30T00:38:33;10.25;;;4.97;;
27728;SDS011;15126;42.186;24.340;2024-01-30T00:40:59;10.93;;;4.85;;
27728;SDS011;15126;42.186;24.340;2024-01-30T00:43:24;11.30;;;5.47;;
27728;SDS011;15126;42.186;24.340;2024-01-30T00:45:50;17.90;;;6.63;;
27728;SDS011;15126;42.186;24.340;2024-01-30T00:48:17;31.02;;;9.52;;
27728;SDS011;15126;42.186;24.340;2024-01-30T00:50:43;34.90;;;11.75;;
27728;SDS011;15126;42.186;24.340;2024-01-30T00:53:08;38.72;;;11.35;;
27728;SDS011;15126;42.186;24.340;2024-01-30T00:55:34;33.97;;;10.48;;
27728;SDS011;15126;42.186;24.340;2024-01-30T00:58:00;37.17;;;11.88;;
27728;SDS011;15126;42.186;24.340;2024-01-30T01:00:26;45.92;;;11.90;;
27728;SDS011;15126;42.186;24.340;2024-01-30T01:02:57;45.83;;;14.35;;
27728;SDS011;15126;42.186;24.340;2024-01-30T01:05:23;39.35;;;10.32;;
27728;SDS011;15126;42.186;24.340;2024-01-30T01:07:48;24.60;;;7.75;;
27728;SDS011;15126;42.186;24.340;2024-01-30T01:10:14;22.55;;;8.80;;
27728;SDS011;15126;42.186;24.340;2024-01-30T01:12:41;34.45;;;9.93;;
27728;SDS011;15126;42.186;24.340;2024-01-30T01:15:07;28.83;;;9.48;;
27728;SDS011;15126;42.186;24.340;2024-01-30T01:17:35;33.42;;;10.20;;
27728;SDS011;15126;42.186;24.340;2024-01-30T01:20:04;27.95;;;8.93;;
27728;SDS011;15126;42.186;24.340;2024-01-30T01:22:31;28.90;;;8.27;;
27728;SDS011;15126;42.186;24.340;2024-01-30T01:24:57;20.52;;;7.90;;
27728;SDS011;15126;42.186;24.340;2024-01-30T01:27:23;30.23;;;8.52;;
27728;SDS011;15126;42.186;24.340;2024-01-30T01:29:48;23.63;;;8.25;;
27728;SDS011;15126;42.186;24.340;2024-01-30T01:32:14;21.80;;;8.07;;
27728;SDS011;15126;42.186;24.340;2024-01-30T01:34:39;34.45;;;8.82;;
27728;SDS011;15126;42.186;24.340;2024-01-30T01:37:04;24.83;;;8.85;;
27728;SDS011;15126;42.186;24.340;2024-01-30T01:39:30;28.55;;;8.63;;
27728;SDS011;15126;42.186;24.340;2024-01-30T01:41:56;27.17;;;8.90;;
27728;SDS011;15126;42.186;24.340;2024-01-30T01:44:21;24.73;;;8.23;;
27728;SDS011;15126;42.186;24.340;2024-01-30T01:46:47;27.15;;;9.23;;
27728;SDS011;15126;42.186;24.340;2024-01-30T01:49:12;31.50;;;10.45;;
27728;SDS011;15126;42.186;24.340;2024-01-30T01:51:39;25.95;;;9.35;;
27728;SDS011;15126;42.186;24.340;2024-01-30T01:54:06;27.98;;;9.60;;
27728;SDS011;15126;42.186;24.340;2024-01-30T01:56:33;32.95;;;10.77;;
27728;SDS011;15126;42.186;24.340;2024-01-30T01:59:05;24.50;;;8.13;;
27728;SDS011;15126;42.186;24.340;2024-01-30T02:01:33;18.08;;;7.22;;
27728;SDS011;15126;42.186;24.340;2024-01-30T02:03:59;16.15;;;7.40;;
27728;SDS011;15126;42.186;24.340;2024-01-30T02:06:26;15.60;;;7.18;;
27728;SDS011;15126;42.186;24.340;2024-01-30T02:08:52;15.27;;;7.28;;
27728;SDS011;15126;42.186;24.340;2024-01-30T02:11:18;18.55;;;6.85;;
27728;SDS011;15126;42.186;24.340;2024-01-30T02:13:44;15.10;;;6.65;;
27728;SDS011;15126;42.186;24.340;2024-01-30T02:16:10;12.07;;;5.53;;
27728;SDS011;15126;42.186;24.340;2024-01-30T02:18:36;12.18;;;5.60;;
27728;SDS011;15126;42.186;24.340;2024-01-30T02:21:07;16.10;;;6.60;;
27728;SDS011;15126;42.186;24.340;2024-01-30T02:23:32;11.98;;;5.90;;
27728;SDS011;15126;42.186;24.340;2024-01-30T02:25:59;12.38;;;6.15;;
27728;SDS011;15126;42.186;24.340;2024-01-30T02:28:25;12.50;;;5.85;;
27728;SDS011;15126;42.186;24.340;2024-01-30T02:30:51;16.73;;;6.82;;
27728;SDS011;15126;42.186;24.340;2024-01-30T02:33:16;12.48;;;5.40;;
27728;SDS011;15126;42.186;24.340;2024-01-30T02:35:42;13.50;;;6.22;;
27728;SDS011;15126;42.186;24.340;2024-01-30T02:38:07;11.90;;;4.97;;
27728;SDS011;15126;42.186;24.340;2024-01-30T02:40:33;14.88;;;6.25;;
27728;SDS011;15126;42.186;24.340;2024-01-30T02:42:59;16.30;;;6.40;;
27728;SDS011;15126;42.186;24.340;2024-01-30T02:45:25;19.15;;;8.35;;
27728;SDS011;15126;42.186;24.340;2024-01-30T02:47:50;13.57;;;7.82;;
27728;SDS011;15126;42.186;24.340;2024-01-30T02:50:16;16.40;;;8.07;;
27728;SDS011;15126;42.186;24.340;2024-01-30T02:52:41;17.55;;;7.50;;
27728;SDS011;15126;42.186;24.340;2024-01-30T02:55:09;18.25;;;7.28;;
27728;SDS011;15126;42.186;24.340;2024-01-30T02:57:35;22.08;;;8.85;;
27728;SDS011;15126;42.186;24.340;2024-01-30T03:00:00;15.18;;;6.97;;
27728;SDS011;15126;42.186;24.340;2024-01-30T03:02:26;14.35;;;7.60;;
27728;SDS011;15126;42.186;24.340;2024-01-30T03:04:51;22.95;;;7.97;;
27728;SDS011;15126;42.186;24.340;2024-01-30T03:07:17;19.58;;;8.40;;
27728;SDS011;15126;42.186;24.340;2024-01-30T03:09:42;13.48;;;6.60;;
27728;SDS011;15126;42.186;24.340;2024-01-30T03:12:09;16.67;;;6.78;;
27728;SDS011;15126;42.186;24.340;2024-01-30T03:14:34;12.00;;;7.15;;
27728;SDS011;15126;42.186;24.340;2024-01-30T03:17:00;15.20;;;6.50;;
27728;SDS011;15126;42.186;24.340;2024-01-30T03:19:25;12.50;;;6.03;;
27728;SDS011;15126;42.186;24.340;2024-01-30T03:21:50;11.68;;;5.43;;
27728;SDS011;15126;42.186;24.340;2024-01-30T03:24:16;11.00;;;4.68;;
27728;SDS011;15126;42.186;24.340;2024-01-30T03:26:42;9.63;;;4.60;;
27728;SDS011;15126;42.186;24.340;2024-01-30T03:29:08;10.85;;;4.57;;
27728;SDS011;15126;42.186;24.340;2024-01-30T03:31:34;12.27;;;4.95;;
27728;SDS011;15126;42.186;24.340;2024-01-30T03:33:59;13.55;;;5.50;;
27728;SDS011;15126;42.186;24.340;2024-01-30T03:38:51;13.45;;;5.35;;
27728;SDS011;15126;42.186;24.340;2024-01-30T03:41:17;10.73;;;6.00;;
27728;SDS011;15126;42.186;24.340;2024-01-30T03:43:42;14.73;;;6.72;;
27728;SDS011;15126;42.186;24.340;2024-01-30T03:46:07;20.17;;;6.00;;
27728;SDS011;15126;42.186;24.340;2024-01-30T03:48:33;11.05;;;6.30;;
27728;SDS011;15126;42.186;24.340;2024-01-30T03:50:58;13.95;;;6.30;;
27728;SDS011;15126;42.186;24.340;2024-01-30T03:53:24;14.10;;;7.13;;
27728;SDS011;15126;42.186;24.340;2024-01-30T03:55:49;15.73;;;6.03;;
27728;SDS011;15126;42.186;24.340;2024-01-30T03:58:15;13.43;;;6.30;;
27728;SDS011;15126;42.186;24.340;2024-01-30T04:00:40;16.25;;;7.70;;
27728;SDS011;15126;42.186;24.340;2024-01-30T04:03:06;19.75;;;10.15;;
27728;SDS011;15126;42.186;24.340;2024-01-30T04:05:32;29.30;;;12.93;;
27728;SDS011;15126;42.186;24.340;2024-01-30T04:07:58;20.48;;;11.23;;
27728;SDS011;15126;42.186;24.340;2024-01-30T04:10:24;20.60;;;10.77;;
27728;SDS011;15126;42.186;24.340;2024-01-30T04:12:50;18.15;;;9.90;;
27728;SDS011;15126;42.186;24.340;2024-01-30T04:15:17;20.08;;;9.80;;
27728;SDS011;15126;42.186;24.340;2024-01-30T04:20:13;19.45;;;7.57;;
27728;SDS011;15126;42.186;24.340;2024-01-30T04:22:39;12.93;;;7.28;;
27728;SDS011;15126;42.186;24.340;2024-01-30T04:25:04;19.73;;;7.85;;
27728;SDS011;15126;42.186;24.340;2024-01-30T04:27:30;15.07;;;7.43;;
27728;SDS011;15126;42.186;24.340;2024-01-30T04:29:56;20.38;;;8.05;;
27728;SDS011;15126;42.186;24.340;2024-01-30T04:32:21;22.30;;;8.02;;
27728;SDS011;15126;42.186;24.340;2024-01-30T04:34:47;23.23;;;9.63;;
27728;SDS011;15126;42.186;24.340;2024-01-30T04:37:12;15.55;;;7.03;;
27728;SDS011;15126;42.186;24.340;2024-01-30T04:39:38;16.48;;;5.57;;
27728;SDS011;15126;42.186;24.340;2024-01-30T04:42:03;13.88;;;5.70;;
27728;SDS011;15126;42.186;24.340;2024-01-30T04:44:30;11.93;;;6.55;;
27728;SDS011;15126;42.186;24.340;2024-01-30T04:46:55;15.27;;;5.50;;
27728;SDS011;15126;42.186;24.340;2024-01-30T04:49:24;15.52;;;5.88;;
27728;SDS011;15126;42.186;24.340;2024-01-30T04:51:49;13.90;;;6.05;;
27728;SDS011;15126;42.186;24.340;2024-01-30T04:54:14;13.75;;;6.60;;
27728;SDS011;15126;42.186;24.340;2024-01-30T04:56:40;12.10;;;5.45;;
27728;SDS011;15126;42.186;24.340;2024-01-30T04:59:06;12.00;;;5.68;;
27728;SDS011;15126;42.186;24.340;2024-01-30T05:01:36;14.68;;;6.10;;
27728;SDS011;15126;42.186;24.340;2024-01-30T05:04:02;18.38;;;6.40;;
27728;SDS011;15126;42.186;24.340;2024-01-30T05:06:28;18.65;;;6.75;;
27728;SDS011;15126;42.186;24.340;2024-01-30T05:08:54;14.77;;;6.95;;
27728;SDS011;15126;42.186;24.340;2024-01-30T05:11:19;13.82;;;6.65;;
27728;SDS011;15126;42.186;24.340;2024-01-30T05:13:45;25.63;;;7.40;;
27728;SDS011;15126;42.186;24.340;2024-01-30T05:16:10;47.38;;;13.93;;
27728;SDS011;15126;42.186;24.340;2024-01-30T05:18:36;46.35;;;14.45;;
27728;SDS011;15126;42.186;24.340;2024-01-30T05:21:02;38.90;;;12.93;;
27728;SDS011;15126;42.186;24.340;2024-01-30T05:23:28;38.85;;;13.00;;
27728;SDS011;15126;42.186;24.340;2024-01-30T05:25:54;42.30;;;13.20;;
27728;SDS011;15126;42.186;24.340;2024-01-30T05:28:19;43.80;;;14.55;;
27728;SDS011;15126;42.186;24.340;2024-01-30T05:30:45;44.60;;;13.73;;
27728;SDS011;15126;42.186;24.340;2024-01-30T05:33:11;40.65;;;12.75;;
27728;SDS011;15126;42.186;24.340;2024-01-30T05:35:39;37.67;;;12.20;;
27728;SDS011;15126;42.186;24.340;2024-01-30T05:38:04;33.95;;;11.98;;
27728;SDS011;15126;42.186;24.340;2024-01-30T05:40:30;25.33;;;8.88;;
27728;SDS011;15126;42.186;24.340;2024-01-30T05:42:56;17.20;;;6.53;;
27728;SDS011;15126;42.186;24.340;2024-01-30T05:45:23;16.83;;;6.82;;
27728;SDS011;15126;42.186;24.340;2024-01-30T05:47:48;14.63;;;7.15;;
27728;SDS011;15126;42.186;24.340;2024-01-30T05:50:14;30.05;;;12.55;;
27728;SDS011;15126;42.186;24.340;2024-01-30T05:52:40;19.08;;;8.68;;
27728;SDS011;15126;42.186;24.340;2024-01-30T05:55:05;17.15;;;7.75;;
27728;SDS011;15126;42.186;24.340;2024-01-30T05:57:31;14.93;;;6.80;;
27728;SDS011;15126;42.186;24.340;2024-01-30T05:59:57;14.68;;;6.35;;
27728;SDS011;15126;42.186;24.340;2024-01-30T06:02:22;16.85;;;6.57;;
27728;SDS011;15126;42.186;24.340;2024-01-30T06:04:50;15.10;;;6.90;;
27728;SDS011;15126;42.186;24.340;2024-01-30T06:07:16;13.20;;;6.32;;
27728;SDS011;15126;42.186;24.340;2024-01-30T06:09:42;14.40;;;6.40;;
27728;SDS011;15126;42.186;24.340;2024-01-30T06:12:08;15.55;;;6.20;;
27728;SDS011;15126;42.186;24.340;2024-01-30T06:14:34;14.98;;;5.88;;
27728;SDS011;15126;42.186;24.340;2024-01-30T06:17:00;13.93;;;6.53;;
27728;SDS011;15126;42.186;24.340;2024-01-30T06:19:25;16.20;;;6.30;;
27728;SDS011;15126;42.186;24.340;2024-01-30T06:21:51;17.95;;;7.75;;
27728;SDS011;15126;42.186;24.340;2024-01-30T06:24:16;26.27;;;7.60;;
27728;SDS011;15126;42.186;24.340;2024-01-30T06:26:42;21.10;;;9.13;;
27728;SDS011;15126;42.186;24.340;2024-01-30T06:29:08;26.40;;;8.95;;
27728;SDS011;15126;42.186;24.340;2024-01-30T06:31:41;20.98;;;8.90;;
27728;SDS011;15126;42.186;24.340;2024-01-30T06:34:08;28.23;;;9.55;;
27728;SDS011;15126;42.186;24.340;2024-01-30T06:36:34;21.52;;;8.65;;
27728;SDS011;15126;42.186;24.340;2024-01-30T06:39:00;20.05;;;8.68;;
27728;SDS011;15126;42.186;24.340;2024-01-30T06:41:30;18.02;;;9.88;;
27728;SDS011;15126;42.186;24.340;2024-01-30T06:43:56;20.92;;;8.73;;
27728;SDS011;15126;42.186;24.340;2024-01-30T06:46:22;19.70;;;9.23;;
27728;SDS011;15126;42.186;24.340;2024-01-30T06:48:47;16.10;;;8.73;;
27728;SDS011;15126;42.186;24.340;2024-01-30T06:51:13;22.58;;;9.68;;
27728;SDS011;15126;42.186;24.340;2024-01-30T06:53:58;41.08;;;11.57;;
27728;SDS011;15126;42.186;24.340;2024-01-30T06:56:27;27.95;;;11.85;;
27728;SDS011;15126;42.186;24.340;2024-01-30T06:59:06;25.77;;;10.90;;
27728;SDS011;15126;42.186;24.340;2024-01-30T07:01:32;27.63;;;12.35;;
27728;SDS011;15126;42.186;24.340;2024-01-30T07:03:57;26.77;;;11.23;;
27728;SDS011;15126;42.186;24.340;2024-01-30T07:06:26;17.58;;;8.77;;
27728;SDS011;15126;42.186;24.340;2024-01-30T07:08:51;21.38;;;9.88;;
27728;SDS011;15126;42.186;24.340;2024-01-30T07:11:20;21.80;;;9.40;;
27728;SDS011;15126;42.186;24.340;2024-01-30T07:13:54;18.92;;;9.00;;
27728;SDS011;15126;42.186;24.340;2024-01-30T07:16:19;22.77;;;9.52;;
27728;SDS011;15126;42.186;24.340;2024-01-30T07:18:45;23.50;;;10.45;;
27728;SDS011;15126;42.186;24.340;2024-01-30T07:21:14;25.98;;;10.57;;
27728;SDS011;15126;42.186;24.340;2024-01-30T07:23:40;23.17;;;10.23;;
27728;SDS011;15126;42.186;24.340;2024-01-30T07:26:07;32.53;;;11.32;;
27728;SDS011;15126;42.186;24.340;2024-01-30T07:30:59;20.58;;;8.93;;
27728;SDS011;15126;42.186;24.340;2024-01-30T07:33:24;17.45;;;9.38;;
27728;SDS011;15126;42.186;24.340;2024-01-30T07:35:52;18.50;;;8.55;;
27728;SDS011;15126;42.186;24.340;2024-01-30T07:38:21;14.77;;;7.57;;
27728;SDS011;15126;42.186;24.340;2024-01-30T07:40:46;16.63;;;7.13;;
27728;SDS011;15126;42.186;24.340;2024-01-30T07:43:14;11.43;;;5.97;;
27728;SDS011;15126;42.186;24.340;2024-01-30T07:45:42;18.73;;;7.22;;
27728;SDS011;15126;42.186;24.340;2024-01-30T07:48:15;16.65;;;7.45;;
27728;SDS011;15126;42.186;24.340;2024-01-30T07:50:41;12.38;;;5.65;;
27728;SDS011;15126;42.186;24.340;2024-01-30T07:53:09;12.35;;;6.30;;
27728;SDS011;15126;42.186;24.340;2024-01-30T07:55:35;16.98;;;6.85;;
27728;SDS011;15126;42.186;24.340;2024-01-30T07:58:00;16.50;;;7.15;;
27728;SDS011;15126;42.186;24.340;2024-01-30T08:00:26;13.48;;;6.35;;
27728;SDS011;15126;42.186;24.340;2024-01-30T08:02:55;13.35;;;7.55;;
27728;SDS011;15126;42.186;24.340;2024-01-30T08:05:21;14.48;;;6.10;;
27728;SDS011;15126;42.186;24.340;2024-01-30T08:07:50;24.10;;;7.60;;
27728;SDS011;15126;42.186;24.340;2024-01-30T08:10:16;16.65;;;7.63;;
27728;SDS011;15126;42.186;24.340;2024-01-30T08:12:44;17.08;;;7.20;;
27728;SDS011;15126;42.186;24.340;2024-01-30T08:15:09;14.32;;;7.65;;
27728;SDS011;15126;42.186;24.340;2024-01-30T08:17:37;16.67;;;8.13;;
27728;SDS011;15126;42.186;24.340;2024-01-30T08:20:02;14.60;;;7.00;;
27728;SDS011;15126;42.186;24.340;2024-01-30T08:22:32;14.13;;;5.70;;
27728;SDS011;15126;42.186;24.340;2024-01-30T08:24:58;12.65;;;6.20;;
27728;SDS011;15126;42.186;24.340;2024-01-30T08:27:23;12.52;;;5.72;;
27728;SDS011;15126;42.186;24.340;2024-01-30T08:29:49;13.98;;;6.10;;
27728;SDS011;15126;42.186;24.340;2024-01-30T08:32:15;14.23;;;6.13;;
27728;SDS011;15126;42.186;24.340;2024-01-30T08:34:43;15.98;;;5.57;;
27728;SDS011;15126;42.186;24.340;2024-01-30T08:37:09;12.98;;;6.25;;
27728;SDS011;15126;42.186;24.340;2024-01-30T08:39:34;11.95;;;5.72;;
27728;SDS011;15126;42.186;24.340;2024-01-30T08:41:59;12.20;;;5.68;;
27728;SDS011;15126;42.186;24.340;2024-01-30T08:44:28;13.82;;;6.25;;
27728;SDS011;15126;42.186;24.340;2024-01-30T08:46:53;9.45;;;5.18;;
27728;SDS011;15126;42.186;24.340;2024-01-30T08:49:22;12.85;;;5.47;;
27728;SDS011;15126;42.186;24.340;2024-01-30T08:51:47;11.10;;;5.40;;
27728;SDS011;15126;42.186;24.340;2024-01-30T08:54:13;13.15;;;5.32;;
27728;SDS011;15126;42.186;24.340;2024-01-30T08:56:39;13.82;;;6.05;;
27728;SDS011;15126;42.186;24.340;2024-01-30T08:59:05;9.45;;;5.55;;
27728;SDS011;15126;42.186;24.340;2024-01-30T09:01:30;11.88;;;6.20;;
27728;SDS011;15126;42.186;24.340;2024-01-30T09:03:56;14.02;;;6.15;;
27728;SDS011;15126;42.186;24.340;2024-01-30T09:06:21;13.00;;;6.15;;
27728;SDS011;15126;42.186;24.340;2024-01-30T09:08:53;18.15;;;7.03;;
27728;SDS011;15126;42.186;24.340;2024-01-30T09:11:18;14.35;;;6.95;;
27728;SDS011;15126;42.186;24.340;2024-01-30T09:13:47;26.92;;;6.43;;
27728;SDS011;15126;42.186;24.340;2024-01-30T09:16:13;12.93;;;6.20;;
27728;SDS011;15126;42.186;24.340;2024-01-30T09:18:41;14.07;;;5.72;;
27728;SDS011;15126;42.186;24.340;2024-01-30T09:21:07;9.15;;;4.15;;
27728;SDS011;15126;42.186;24.340;2024-01-30T09:23:35;7.85;;;4.07;;
27728;SDS011;15126;42.186;24.340;2024-01-30T09:26:00;8.80;;;4.55;;
27728;SDS011;15126;42.186;24.340;2024-01-30T09:28:28;8.68;;;4.88;;
27728;SDS011;15126;42.186;24.340;2024-01-30T09:30:54;11.80;;;5.57;;
27728;SDS011;15126;42.186;24.340;2024-01-30T09:33:22;11.70;;;4.82;;
27728;SDS011;15126;42.186;24.340;2024-01-30T09:35:47;10.60;;;5.95;;
27728;SDS011;15126;42.186;24.340;2024-01-30T09:38:12;10.40;;;4.97;;
27728;SDS011;15126;42.186;24.340;2024-01-30T09:40:38;8.75;;;4.40;;
27728;SDS011;15126;42.186;24.340;2024-01-30T09:43:06;12.35;;;6.15;;
27728;SDS011;15126;42.186;24.340;2024-01-30T09:45:31;11.68;;;5.00;;
27728;SDS011;15126;42.186;24.340;2024-01-30T09:47:58;10.10;;;3.97;;
27728;SDS011;15126;42.186;24.340;2024-01-30T09:50:26;8.60;;;4.47;;
27728;SDS011;15126;42.186;24.340;2024-01-30T09:52:55;10.40;;;4.97;;
27728;SDS011;15126;42.186;24.340;2024-01-30T09:55:22;13.80;;;5.18;;
27728;SDS011;15126;42.186;24.340;2024-01-30T09:57:51;15.00;;;6.75;;
27728;SDS011;15126;42.186;24.340;2024-01-30T10:00:16;9.98;;;4.15;;
27728;SDS011;15126;42.186;24.340;2024-01-30T10:02:42;7.45;;;3.05;;
27728;SDS011;15126;42.186;24.340;2024-01-30T10:05:10;5.97;;;2.75;;
27728;SDS011;15126;42.186;24.340;2024-01-30T10:07:49;5.75;;;2.53;;
27728;SDS011;15126;42.186;24.340;2024-01-30T10:10:17;5.25;;;2.53;;
27728;SDS011;15126;42.186;24.340;2024-01-30T10:12:43;3.70;;;2.10;;
27728;SDS011;15126;42.186;24.340;2024-01-30T10:15:08;4.43;;;1.73;;
27728;SDS011;15126;42.186;24.340;2024-01-30T10:17:34;5.65;;;2.63;;
27728;SDS011;15126;42.186;24.340;2024-01-30T10:20:04;4.97;;;2.10;;
27728;SDS011;15126;42.186;24.340;2024-01-30T10:22:33;5.63;;;2.50;;
27728;SDS011;15126;42.186;24.340;2024-01-30T10:24:58;3.83;;;2.35;;
27728;SDS011;15126;42.186;24.340;2024-01-30T10:27:26;9.75;;;3.10;;
27728;SDS011;15126;42.186;24.340;2024-01-30T10:29:52;79.80;;;24.52;;
27728;SDS011;15126;42.186;24.340;2024-01-30T10:32:18;10.48;;;4.85;;
27728;SDS011;15126;42.186;24.340;2024-01-30T10:34:44;10.70;;;3.33;;
27728;SDS011;15126;42.186;24.340;2024-01-30T10:37:10;4.93;;;3.45;;
27728;SDS011;15126;42.186;24.340;2024-01-30T10:39:42;7.55;;;2.88;;
27728;SDS011;15126;42.186;24.340;2024-01-30T10:42:13;6.85;;;3.03;;
27728;SDS011;15126;42.186;24.340;2024-01-30T10:47:21;8.05;;;2.67;;
27728;SDS011;15126;42.186;24.340;2024-01-30T10:49:54;6.85;;;3.15;;
27728;SDS011;15126;42.186;24.340;2024-01-30T10:52:20;5.75;;;2.50;;
27728;SDS011;15126;42.186;24.340;2024-01-30T10:54:48;6.90;;;3.47;;
27728;SDS011;15126;42.186;24.340;2024-01-30T10:57:16;6.38;;;3.40;;
27728;SDS011;15126;42.186;24.340;2024-01-30T10:59:43;5.72;;;3.03;;
27728;SDS011;15126;42.186;24.340;2024-01-30T11:02:10;8.93;;;3.42;;
27728;SDS011;15126;42.186;24.340;2024-01-30T11:07:16;6.93;;;2.92;;
27728;SDS011;15126;42.186;24.340;2024-01-30T11:12:26;6.43;;;3.00;;
27728;SDS011;15126;42.186;24.340;2024-01-30T11:15:02;8.77;;;4.05;;
27728;SDS011;15126;42.186;24.340;2024-01-30T11:20:20;7.00;;;3.58;;
27728;SDS011;15126;42.186;24.340;2024-01-30T11:23:01;9.25;;;4.20;;
27728;SDS011;15126;42.186;24.340;2024-01-30T11:25:31;8.07;;;3.80;;
27728;SDS011;15126;42.186;24.340;2024-01-30T11:27:57;5.90;;;3.17;;
27728;SDS011;15126;42.186;24.340;2024-01-30T11:32:59;5.00;;;2.63;;
27728;SDS011;15126;42.186;24.340;2024-01-30T11:35:26;5.40;;;2.28;;
27728;SDS011;15126;42.186;24.340;2024-01-30T11:37:51;7.72;;;2.75;;
27728;SDS011;15126;42.186;24.340;2024-01-30T11:40:26;6.55;;;2.78;;
27728;SDS011;15126;42.186;24.340;2024-01-30T11:42:56;4.10;;;1.98;;
27728;SDS011;15126;42.186;24.340;2024-01-30T11:45:23;5.43;;;3.00;;
27728;SDS011;15126;42.186;24.340;2024-01-30T11:47:48;7.82;;;3.03;;
27728;SDS011;15126;42.186;24.340;2024-01-30T11:50:17;8.55;;;4.80;;
27728;SDS011;15126;42.186;24.340;2024-01-30T11:52:43;4.78;;;2.20;;
27728;SDS011;15126;42.186;24.340;2024-01-30T11:55:09;5.65;;;3.45;;
27728;SDS011;15126;42.186;24.340;2024-01-30T12:00:04;6.88;;;2.28;;
27728;SDS011;15126;42.186;24.340;2024-01-30T12:02:39;5.93;;;2.78;;
27728;SDS011;15126;42.186;24.340;2024-01-30T12:05:05;6.13;;;3.15;;
27728;SDS011;15126;42.186;24.340;2024-01-30T12:07:32;4.45;;;2.45;;
27728;SDS011;15126;42.186;24.340;2024-01-30T12:09:58;6.90;;;3.10;;
27728;SDS011;15126;42.186;24.340;2024-01-30T12:12:26;5.22;;;2.72;;
27728;SDS011;15126;42.186;24.340;2024-01-30T12:14:53;7.47;;;3.15;;
27728;SDS011;15126;42.186;24.340;2024-01-30T12:17:29;6.22;;;3.30;;
27728;SDS011;15126;42.186;24.340;2024-01-30T12:20:05;4.32;;;2.22;;
27728;SDS011;15126;42.186;24.340;2024-01-30T12:22:38;5.13;;;2.63;;
27728;SDS011;15126;42.186;24.340;2024-01-30T12:25:09;7.40;;;3.65;;
27728;SDS011;15126;42.186;24.340;2024-01-30T12:27:38;4.55;;;2.30;;
27728;SDS011;15126;42.186;24.340;2024-01-30T12:30:14;3.47;;;2.05;;
27728;SDS011;15126;42.186;24.340;2024-01-30T12:32:43;4.97;;;3.42;;
27728;SDS011;15126;42.186;24.340;2024-01-30T12:40:05;8.13;;;3.92;;
27728;SDS011;15126;42.186;24.340;2024-01-30T12:42:32;5.20;;;2.83;;
27728;SDS011;15126;42.186;24.340;2024-01-30T12:44:58;9.00;;;3.35;;
27728;SDS011;15126;42.186;24.340;2024-01-30T12:47:24;6.25;;;2.40;;
27728;SDS011;15126;42.186;24.340;2024-01-30T12:49:49;8.77;;;2.13;;
27728;SDS011;15126;42.186;24.340;2024-01-30T12:52:21;5.75;;;1.88;;
27728;SDS011;15126;42.186;24.340;2024-01-30T12:54:50;5.90;;;2.03;;
27728;SDS011;15126;42.186;24.340;2024-01-30T12:57:17;6.28;;;3.67;;
27728;SDS011;15126;42.186;24.340;2024-01-30T12:59:44;5.22;;;1.80;;
27728;SDS011;15126;42.186;24.340;2024-01-30T13:02:12;8.88;;;2.20;;
27728;SDS011;15126;42.186;24.340;2024-01-30T13:04:38;6.32;;;3.03;;
27728;SDS011;15126;42.186;24.340;2024-01-30T13:07:04;5.50;;;2.25;;
27728;SDS011;15126;42.186;24.340;2024-01-30T13:09:30;3.65;;;1.58;;
27728;SDS011;15126;42.186;24.340;2024-01-30T13:11:59;3.15;;;1.83;;
27728;SDS011;15126;42.186;24.340;2024-01-30T13:14:25;3.13;;;1.60;;
27728;SDS011;15126;42.186;24.340;2024-01-30T13:16:51;4.05;;;1.98;;
27728;SDS011;15126;42.186;24.340;2024-01-30T13:19:17;4.43;;;2.13;;
27728;SDS011;15126;42.186;24.340;2024-01-30T13:21:42;3.45;;;2.25;;
27728;SDS011;15126;42.186;24.340;2024-01-30T13:24:11;3.55;;;1.63;;
27728;SDS011;15126;42.186;24.340;2024-01-30T13:26:36;2.90;;;1.60;;
27728;SDS011;15126;42.186;24.340;2024-01-30T13:29:02;4.18;;;2.15;;
27728;SDS011;15126;42.186;24.340;2024-01-30T13:31:28;3.25;;;1.73;;
27728;SDS011;15126;42.186;24.340;2024-01-30T13:33:57;2.60;;;1.55;;
27728;SDS011;15126;42.186;24.340;2024-01-30T13:36:22;3.72;;;2.33;;
27728;SDS011;15126;42.186;24.340;2024-01-30T13:38:48;4.65;;;1.92;;
27728;SDS011;15126;42.186;24.340;2024-01-30T13:41:13;3.17;;;1.88;;
27728;SDS011;15126;42.186;24.340;2024-01-30T13:43:39;4.22;;;2.00;;
27728;SDS011;15126;42.186;24.340;2024-01-30T13:46:07;5.38;;;2.17;;
27728;SDS011;15126;42.186;24.340;2024-01-30T13:48:32;3.97;;;1.88;;
27728;SDS011;15126;42.186;24.340;2024-01-30T13:51:02;3.30;;;1.83;;
27728;SDS011;15126;42.186;24.340;2024-01-30T13:53:28;4.50;;;2.28;;
27728;SDS011;15126;42.186;24.340;2024-01-30T13:55:53;4.85;;;2.20;;
27728;SDS011;15126;42.186;24.340;2024-01-30T13:58:20;5.32;;;2.28;;
27728;SDS011;15126;42.186;24.340;2024-01-30T14:00:45;3.65;;;1.67;;
27728;SDS011;15126;42.186;24.340;2024-01-30T14:03:11;4.80;;;1.70;;
27728;SDS011;15126;42.186;24.340;2024-01-30T14:05:37;6.50;;;1.83;;
27728;SDS011;15126;42.186;24.340;2024-01-30T14:08:02;4.05;;;2.30;;
27728;SDS011;15126;42.186;24.340;2024-01-30T14:10:28;7.03;;;2.30;;
27728;SDS011;15126;42.186;24.340;2024-01-30T14:12:53;4.15;;;2.03;;
27728;SDS011;15126;42.186;24.340;2024-01-30T14:15:19;4.13;;;2.45;;
27728;SDS011;15126;42.186;24.340;2024-01-30T14:17:45;3.50;;;1.85;;
27728;SDS011;15126;42.186;24.340;2024-01-30T14:20:13;4.38;;;2.03;;
27728;SDS011;15126;42.186;24.340;2024-01-30T14:22:39;4.70;;;2.28;;
27728;SDS011;15126;42.186;24.340;2024-01-30T14:25:04;3.97;;;2.65;;
27728;SDS011;15126;42.186;24.340;2024-01-30T14:27:30;4.68;;;2.05;;
27728;SDS011;15126;42.186;24.340;2024-01-30T14:29:56;4.90;;;2.30;;
27728;SDS011;15126;42.186;24.340;2024-01-30T14:32:22;5.30;;;2.58;;
27728;SDS011;15126;42.186;24.340;2024-01-30T14:34:48;4.35;;;2.28;;
27728;SDS011;15126;42.186;24.340;2024-01-30T14:37:14;6.40;;;2.85;;
27728;SDS011;15126;42.186;24.340;2024-01-30T14:39:40;4.93;;;2.15;;
27728;SDS011;15126;42.186;24.340;2024-01-30T14:42:06;6.68;;;1.92;;
27728;SDS011;15126;42.186;24.340;2024-01-30T14:44:32;6.38;;;2.38;;
27728;SDS011;15126;42.186;24.340;2024-01-30T14:46:58;7.20;;;2.10;;
27728;SDS011;15126;42.186;24.340;2024-01-30T14:49:24;5.28;;;2.55;;